Time,TemperatureF,DewpointF,PressureIn,WindDirection,WindDirectionDegrees,WindSpeedMPH,WindSpeedGustMPH,Humidity,HourlyPrecipIn,Conditions,Clouds,dailyrainin,SoftwareType,DateUTC
2013-02-22 00:01:00,20.0,12.0,-100.00,North,0,14.0,16.0,70,0.00,,,0.00,,2013-02-22 00:01:00,
2013-02-22 00:11:00,20.0,12.0,-100.00,North,0,15.0,20.0,69,0.00,,,0.00,,2013-02-22 00:11:00,
2013-02-22 00:21:00,20.0,12.0,-100.00,North,0,12.0,22.0,70,0.00,,,0.00,,2013-02-22 00:21:00,
2013-02-22 00:32:00,20.0,12.0,-100.00,North,0,16.0,20.0,71,0.00,,,0.00,,2013-02-22 00:32:00,
2013-02-22 00:41:00,20.0,12.0,-100.00,North,0,14.0,19.0,71,0.00,,,0.00,,2013-02-22 00:41:00,
2013-02-22 00:51:00,19.0,12.0,-100.00,North,0,11.0,19.0,72,0.00,,,0.00,,2013-02-22 00:51:00,
2013-02-22 01:01:00,19.0,12.0,-100.00,North,0,14.0,18.0,72,0.00,,,0.00,,2013-02-22 01:01:00,
2013-02-22 01:11:00,19.0,12.0,-100.00,North,0,13.0,17.0,72,0.00,,,0.00,,2013-02-22 01:11:00,
2013-02-22 01:21:00,19.0,12.0,-100.00,North,0,14.0,18.0,72,0.00,,,0.00,,2013-02-22 01:21:00,
2013-02-22 01:32:00,19.0,12.0,-100.00,North,0,12.0,15.0,73,0.00,,,0.00,,2013-02-22 01:32:00,
2013-02-22 01:42:00,19.0,12.0,-100.00,North,0,11.0,16.0,74,0.00,,,0.00,,2013-02-22 01:42:00,
2013-02-22 01:51:00,20.0,12.0,-100.00,North,5,13.0,20.0,73,0.00,,,0.00,,2013-02-22 01:51:00,
2013-02-22 02:02:00,20.0,12.0,-100.00,North,355,12.0,15.0,74,0.00,,,0.00,,2013-02-22 02:02:00,
2013-02-22 02:11:00,20.0,12.0,-100.00,North,350,17.0,22.0,74,0.00,,,0.00,,2013-02-22 02:11:00,
2013-02-22 02:21:00,20.0,12.0,-100.00,North,0,20.0,24.0,73,0.00,,,0.00,,2013-02-22 02:21:00,
2013-02-22 02:31:00,20.0,12.0,-100.00,North,350,17.0,22.0,74,0.00,,,0.00,,2013-02-22 02:31:00,
2013-02-22 02:42:00,20.0,12.0,-100.00,North,0,14.0,23.0,75,0.00,,,0.00,,2013-02-22 02:42:00,
2013-02-22 02:52:00,20.0,12.0,-100.00,North,355,18.0,24.0,75,0.00,,,0.00,,2013-02-22 02:52:00,
2013-02-22 03:01:00,20.0,12.0,-100.00,North,355,17.0,23.0,75,0.00,,,0.00,,2013-02-22 03:01:00,
2013-02-22 03:11:00,20.0,12.0,-100.00,North,355,17.0,23.0,75,0.00,,,0.00,,2013-02-22 03:11:00,
2013-02-22 03:21:00,19.0,12.0,-100.00,NNW,345,14.0,18.0,75,0.00,,,0.00,,2013-02-22 03:21:00,
2013-02-22 03:32:00,19.0,14.0,-100.00,NNW,330,12.0,19.0,76,0.00,,,0.00,,2013-02-22 03:32:00,
2013-02-22 03:41:00,19.0,14.0,-100.00,North,350,11.0,20.0,79,0.00,,,0.00,,2013-02-22 03:41:00,
2013-02-22 03:51:00,19.0,14.0,-100.00,NNW,335,14.0,19.0,84,0.00,,,0.00,,2013-02-22 03:51:00,
2013-02-22 04:01:00,19.0,16.0,-100.00,NNW,340,14.0,18.0,87,0.00,,,0.00,,2013-02-22 04:01:00,
2013-02-22 04:11:00,18.0,16.0,-100.00,NNW,340,12.0,18.0,89,0.00,,,0.00,,2013-02-22 04:11:00,
2013-02-22 04:21:00,18.0,16.0,-100.00,NNW,345,13.0,19.0,89,0.00,,,0.00,,2013-02-22 04:21:00,
2013-02-22 04:32:00,18.0,16.0,-100.00,NNW,340,12.0,21.0,89,0.00,,,0.00,,2013-02-22 04:32:00,
2013-02-22 04:42:00,18.0,16.0,-100.00,NNW,345,12.0,19.0,90,0.00,,,0.00,,2013-02-22 04:42:00,
2013-02-22 04:51:00,18.0,16.0,-100.00,NNW,345,14.0,19.0,91,0.00,,,0.00,,2013-02-22 04:51:00,
2013-02-22 05:01:00,18.0,16.0,-100.00,NNW,340,12.0,17.0,92,0.00,,,0.00,,2013-02-22 05:01:00,
2013-02-22 05:12:00,18.0,16.0,-100.00,NNW,340,14.0,18.0,93,0.00,,,0.00,,2013-02-22 05:12:00,
2013-02-22 05:22:00,18.0,16.0,-100.00,NNW,335,16.0,19.0,94,0.00,,,0.00,,2013-02-22 05:22:00,
2013-02-22 05:32:00,18.0,16.0,-100.00,NNW,340,11.0,18.0,94,0.00,,,0.00,,2013-02-22 05:32:00,
2013-02-22 05:41:00,18.0,16.0,-100.00,North,350,12.0,16.0,95,0.00,,,0.00,,2013-02-22 05:41:00,
2013-02-22 05:52:00,18.0,18.0,-100.00,North,355,10.0,17.0,95,0.00,,,0.00,,2013-02-22 05:52:00,
2013-02-22 06:01:00,18.0,18.0,-100.00,NNW,345,12.0,16.0,96,0.00,,,0.00,,2013-02-22 06:01:00,
2013-02-22 06:11:00,18.0,18.0,-100.00,NNW,345,12.0,16.0,96,0.00,,,0.00,,2013-02-22 06:11:00,
2013-02-22 06:21:00,18.0,18.0,-100.00,NNW,345,12.0,16.0,96,0.00,,,0.00,,2013-02-22 06:21:00,
2013-02-22 06:31:00,18.0,18.0,-100.00,NNW,340,14.0,19.0,97,0.00,,,0.00,,2013-02-22 06:31:00,
2013-02-22 06:42:00,18.0,18.0,-100.00,NNW,340,12.0,17.0,97,0.00,,,0.00,,2013-02-22 06:42:00,
2013-02-22 06:51:00,18.0,18.0,-100.00,NNW,345,13.0,16.0,97,0.00,,,0.00,,2013-02-22 06:51:00,
2013-02-22 07:01:00,19.0,18.0,-100.00,NNW,345,15.0,20.0,97,0.00,,,0.00,,2013-02-22 07:01:00,
2013-02-22 07:11:00,19.0,18.0,-100.00,North,350,12.0,20.0,97,0.00,,,0.00,,2013-02-22 07:11:00,
2013-02-22 07:21:00,19.0,18.0,-100.00,North,350,13.0,19.0,97,0.00,,,0.00,,2013-02-22 07:21:00,
2013-02-22 07:31:00,19.0,18.0,-100.00,NNW,345,14.0,17.0,97,0.00,,,0.00,,2013-02-22 07:31:00,
2013-02-22 07:42:00,19.0,18.0,-100.00,NNW,340,12.0,17.0,98,0.00,,,0.00,,2013-02-22 07:42:00,
2013-02-22 08:52:00,19.0,19.0,-100.00,NNW,340,12.0,17.0,99,0.00,,,0.00,,2013-02-22 08:52:00,
2013-02-22 09:03:00,20.0,19.0,-100.00,NNW,340,37.0,70.0,99,0.00,,,0.00,,2013-02-22 09:03:00,
2013-02-22 09:11:00,20.0,19.0,-100.00,NNW,345,11.0,19.0,99,0.00,,,0.00,,2013-02-22 09:11:00,
2013-02-22 09:21:00,20.0,19.0,-100.00,NNW,340,22.0,42.0,99,0.00,,,0.00,,2013-02-22 09:21:00,
2013-02-22 09:32:00,20.0,19.0,-100.00,NNW,340,12.0,17.0,99,0.00,,,0.00,,2013-02-22 09:32:00,
2013-02-22 09:41:00,19.0,19.0,-100.00,NNW,335,9.0,15.0,99,0.00,,,0.00,,2013-02-22 09:41:00,
2013-02-22 09:51:00,19.0,19.0,-100.00,NNW,330,10.0,14.0,99,0.00,,,0.01,,2013-02-22 09:51:00,
2013-02-22 10:01:00,19.0,19.0,-100.00,NNW,335,11.0,14.0,99,0.00,,,0.01,,2013-02-22 10:01:00,
2013-02-22 10:51:00,19.0,19.0,-100.00,NW,320,11.0,14.0,98,0.00,,,0.01,,2013-02-22 10:51:00,
2013-02-22 11:01:00,20.0,19.0,-100.00,NNW,330,11.0,16.0,98,0.00,,,0.01,,2013-02-22 11:01:00,
2013-02-22 11:11:00,20.0,19.0,-100.00,NW,315,11.0,14.0,98,0.00,,,0.01,,2013-02-22 11:11:00,
2013-02-22 11:21:00,20.0,19.0,-100.00,NW,315,10.0,14.0,98,0.00,,,0.01,,2013-02-22 11:21:00,
2013-02-22 11:32:00,19.0,19.0,-100.00,NW,320,11.0,15.0,99,0.00,,,0.01,,2013-02-22 11:32:00,
2013-02-22 11:42:00,19.0,19.0,-100.00,NW,315,10.0,14.0,99,0.00,,,0.01,,2013-02-22 11:42:00,
2013-02-22 11:52:00,19.0,19.0,-100.00,NW,325,11.0,14.0,99,0.00,,,0.01,,2013-02-22 11:52:00,
2013-02-22 12:02:00,20.0,19.0,-100.00,NW,325,9.0,13.0,99,0.00,,,0.01,,2013-02-22 12:02:00,
2013-02-22 12:11:00,20.0,19.0,-100.00,NW,320,11.0,14.0,99,0.00,,,0.01,,2013-02-22 12:11:00,
2013-02-22 12:21:00,19.0,19.0,-100.00,NW,305,9.0,12.0,99,0.00,,,0.01,,2013-02-22 12:21:00,
2013-02-22 12:42:00,19.0,18.0,-100.00,NW,310,8.0,11.0,98,0.00,,,0.01,,2013-02-22 12:42:00,
2013-02-22 12:52:00,19.0,18.0,-100.00,NW,310,9.0,12.0,98,0.00,,,0.01,,2013-02-22 12:52:00,
2013-02-22 13:01:00,19.0,18.0,-100.00,NW,315,9.0,12.0,98,0.00,,,0.01,,2013-02-22 13:01:00,
2013-02-22 13:11:00,19.0,18.0,-100.00,NW,320,9.0,12.0,98,0.00,,,0.01,,2013-02-22 13:11:00,
2013-02-22 13:51:00,19.0,19.0,-100.00,NW,310,9.0,14.0,97,0.00,,,0.01,,2013-02-22 13:51:00,
2013-02-22 14:01:00,19.0,19.0,-100.00,NW,315,9.0,12.0,97,0.00,,,0.01,,2013-02-22 14:01:00,
2013-02-22 14:11:00,20.0,19.0,-100.00,NW,315,9.0,12.0,97,0.00,,,0.01,,2013-02-22 14:11:00,
2013-02-22 14:21:00,20.0,19.0,-100.00,NW,310,8.0,12.0,97,0.00,,,0.01,,2013-02-22 14:21:00,
2013-02-22 14:32:00,20.0,19.0,-100.00,NW,315,9.0,12.0,96,0.00,,,0.01,,2013-02-22 14:32:00,
2013-02-22 14:42:00,20.0,19.0,-100.00,NW,320,9.0,12.0,96,0.00,,,0.01,,2013-02-22 14:42:00,
2013-02-22 14:52:00,20.0,19.0,-100.00,NW,315,11.0,14.0,95,0.00,,,0.01,,2013-02-22 14:52:00,
2013-02-22 15:01:00,20.0,19.0,-100.00,NW,310,10.0,14.0,94,0.00,,,0.01,,2013-02-22 15:01:00,
2013-02-22 15:11:00,20.0,19.0,-100.00,NW,315,10.0,13.0,94,0.00,,,0.01,,2013-02-22 15:11:00,
2013-02-22 15:21:00,21.0,19.0,-100.00,NW,325,11.0,14.0,93,0.00,,,0.01,,2013-02-22 15:21:00,
2013-02-22 15:32:00,21.0,19.0,-100.00,NW,315,9.0,14.0,93,0.00,,,0.01,,2013-02-22 15:32:00,
2013-02-22 15:41:00,21.0,19.0,-100.00,NW,325,10.0,14.0,92,0.00,,,0.01,,2013-02-22 15:41:00,
2013-02-22 15:52:00,21.0,19.0,-100.00,NNW,330,9.0,12.0,92,0.00,,,0.01,,2013-02-22 15:52:00,
2013-02-22 16:01:00,22.0,19.0,-100.00,NW,320,9.0,13.0,91,0.00,,,0.01,,2013-02-22 16:01:00,
2013-02-22 16:12:00,22.0,19.0,-100.00,NW,315,8.0,12.0,90,0.00,,,0.01,,2013-02-22 16:12:00,
2013-02-22 16:21:00,22.0,19.0,-100.00,NW,320,10.0,14.0,89,0.00,,,0.01,,2013-02-22 16:21:00,
2013-02-22 16:32:00,22.0,19.0,-100.00,NW,310,11.0,13.0,87,0.00,,,0.01,,2013-02-22 16:32:00,
2013-02-22 16:42:00,23.0,19.0,-100.00,NW,315,9.0,12.0,87,0.00,,,0.01,,2013-02-22 16:42:00,
2013-02-22 16:52:00,23.0,19.0,-100.00,NW,325,9.0,13.0,86,0.00,,,0.01,,2013-02-22 16:52:00,
2013-02-22 17:01:00,23.0,19.0,-100.00,NW,320,9.0,12.0,85,0.00,,,0.01,,2013-02-22 17:01:00,
2013-02-22 17:11:00,23.0,19.0,-100.00,NW,320,11.0,12.0,84,0.00,,,0.01,,2013-02-22 17:11:00,
2013-02-22 17:21:00,24.0,19.0,-100.00,NW,310,8.0,11.0,82,0.00,,,0.01,,2013-02-22 17:21:00,
2013-02-22 17:31:00,24.0,19.0,-100.00,NW,325,7.0,11.0,80,0.00,,,0.01,,2013-02-22 17:31:00,
2013-02-22 17:42:00,25.0,19.0,-100.00,NNW,335,6.0,9.0,80,0.00,,,0.01,,2013-02-22 17:42:00,
2013-02-22 17:52:00,25.0,19.0,-100.00,NNW,330,7.0,9.0,78,0.00,,,0.01,,2013-02-22 17:52:00,
2013-02-22 18:01:00,27.0,21.0,-100.00,NNW,345,5.0,7.0,77,0.00,,,0.01,,2013-02-22 18:01:00,
2013-02-22 18:12:00,25.0,19.0,-100.00,NW,310,5.0,7.0,77,0.00,,,0.01,,2013-02-22 18:12:00,
2013-02-22 18:22:00,25.0,19.0,-100.00,WNW,290,6.0,8.0,80,0.00,,,0.01,,2013-02-22 18:22:00,
2013-02-22 18:32:00,26.0,21.0,-100.00,West,275,5.0,7.0,80,0.00,,,0.01,,2013-02-22 18:32:00,
2013-02-22 18:42:00,26.0,19.0,-100.00,West,270,4.0,7.0,80,0.00,,,0.01,,2013-02-22 18:42:00,
2013-02-22 18:51:00,27.0,21.0,-100.00,West,270,3.0,7.0,77,0.00,,,0.01,,2013-02-22 18:51:00,
2013-02-22 19:01:00,25.0,19.0,-100.00,NW,305,4.0,7.0,80,0.00,,,0.01,,2013-02-22 19:01:00,
2013-02-22 19:11:00,26.0,21.0,-100.00,WNW,290,6.0,7.0,79,0.00,,,0.01,,2013-02-22 19:11:00,
2013-02-22 19:21:00,26.0,21.0,-100.00,WNW,295,5.0,7.0,79,0.00,,,0.01,,2013-02-22 19:21:00,
2013-02-22 19:30:00,27.0,21.0,-100.00,West,280,5.0,7.0,79,0.00,,,0.01,,2013-02-22 19:30:00,
2013-02-22 19:31:00,26.0,19.0,-100.00,WNW,300,4.0,7.0,79,0.00,,,0.01,,2013-02-22 19:31:00,
2013-02-22 19:41:00,26.0,21.0,-100.00,West,270,5.0,7.0,80,0.00,,,0.01,,2013-02-22 19:41:00,
2013-02-22 19:52:00,27.0,21.0,-100.00,West,280,5.0,7.0,79,0.00,,,0.01,,2013-02-22 19:52:00,
2013-02-22 20:01:00,27.0,21.0,-100.00,West,280,5.0,7.0,79,0.00,,,0.01,,2013-02-22 20:01:00,
2013-02-22 20:11:00,27.0,21.0,-100.00,West,280,5.0,7.0,79,0.00,,,0.01,,2013-02-22 20:11:00,
2013-02-22 20:21:00,27.0,21.0,-100.00,West,280,5.0,7.0,79,0.00,,,0.01,,2013-02-22 20:21:00,
2013-02-22 23:11:00,22.0,19.0,-100.00,SW,230,11.0,18.0,88,0.00,,,0.01,,2013-02-22 23:11:00,
2013-02-22 23:32:00,22.0,19.0,-100.00,SW,230,11.0,18.0,88,0.00,,,0.01,,2013-02-22 23:32:00,
2013-02-22 23:42:00,22.0,19.0,-100.00,SW,230,11.0,18.0,88,0.00,,,0.01,,2013-02-22 23:42:00,
2013-02-22 23:52:00,22.0,19.0,-100.00,SW,230,11.0,18.0,88,0.00,,,0.01,,2013-02-22 23:52:00,